Saratoga, CA (95070)

3:52 PM PDT on March 28, 2017 (GMT -0700)
Scotland Dr. near Glasgow Dr. | | Change Station

Elev 375 ft 37.27 °N, 122.02 °W | Updated 3 seconds ago

Clear
Clear
72.0 °F
Feels Like 77 °F
N
7.4
Wind Variable Wind from NW
Gusts 10.4 mph

Today
High -- | Low -- °F
--% Chance of Precip.
Yesterday
High -- | Low -- °F
Precip. -- in
Pressure 30.15 in
Visibility 10.0 miles
Clouds Few 5500 ft
Scattered Clouds 20000 ft
Heat Index 77 °F
Dew Point 44 °F
Humidity 36%
Rainfall 0.00 in
Snow Depth Not available.
6:59 AM 7:27 PM
New Moon, 1% visible
METAR KSJC 282153Z 30016KT 10SM FEW055 SCT200 22/06 A3015 RMK AO2 SLP210 T02170056
Pressure 30.15 in
Visibility 10.0 miles
Clouds Few 5500 ft
Scattered Clouds 20000 ft
Heat Index 77 °F
Dew Point 44 °F
Humidity 36%
Rainfall 0.00 in
Snow Depth Not available.
6:59 AM 7:27 PM
New Moon, 1% visible
METAR KSJC 282153Z 30016KT 10SM FEW055 SCT200 22/06 A3015 RMK AO2 SLP210 T02170056

Get Severe Weather Alerts

Thanks for signing up!

Be on the lookout for a verification email in your inbox.

You'll start receiving the daily forecast at 8 AM.

×

10-Day Weather Forecast

Almanac

Astronomy

Mar. 28, 2017 Rise Set
Actual Time
Civil Twilight
Nautical Twilight
Astronomical Twilight
Moon
Length of Visible Light
Length of Day
Tomorrow will be .
, % of the Moon is Illuminated

Today's Extremes

State Highs State Lows

Community

WunderPhotos

Upload Photos

1,962,540 photos uploaded!

WunderBlog® & News

Nearby

Air Quality

  Air Quality AQ Index Pollutant
Not available.

Snow Depth

Station Depth Elevation

Earthquake Activity

City Distance Mag. Time & Date
Minimum magnitude displayed is 2.5.

Earthquake Activity

City Distance Mag. Time & Date
Minimum magnitude displayed is 2.5.

Coastal Water Temperatures

Place Temperature

Stations

Nearby Weather Stations

Station Location Temp. Windchill Dew Point Humidity Wind Precip. Elev Updated Type
                   

Watches & Warnings

There are currently no watches in effect.